Time,TemperatureF,DewpointF,PressureIn,WindDirection,WindDirectionDegrees,WindSpeedMPH,WindSpeedGustMPH,Humidity,HourlyPrecipIn,Conditions,Clouds,dailyrainin,SoftwareType,DateUTC
2013-08-09 00:02:00,59.0,50.0,-100.00,SE,137,5.0,12.0,72,0.00,,,0.00,,2013-08-09 05:02:00,
2013-08-09 00:11:00,59.0,50.0,-100.00,SE,137,5.0,12.0,72,0.00,,,0.00,,2013-08-09 05:11:00,
2013-08-09 00:22:00,59.0,50.0,-100.00,SE,137,5.0,12.0,72,0.00,,,0.00,,2013-08-09 05:22:00,
2013-08-09 00:52:00,59.0,48.0,-100.00,SE,126,3.0,9.0,68,0.00,,,0.00,,2013-08-09 05:52:00,
2013-08-09 01:01:00,59.0,48.0,-100.00,SE,126,3.0,9.0,68,0.00,,,0.00,,2013-08-09 06:01:00,
2013-08-09 01:11:00,59.0,48.0,-100.00,SE,126,3.0,9.0,68,0.00,,,0.00,,2013-08-09 06:11:00,
2013-08-09 01:22:00,59.0,48.0,-100.00,SE,126,3.0,9.0,68,0.00,,,0.00,,2013-08-09 06:22:00,
2013-08-09 01:52:00,58.0,48.0,-100.00,SSE,148,3.0,10.0,69,0.00,,,0.00,,2013-08-09 06:52:00,
2013-08-09 02:01:00,58.0,48.0,-100.00,SSE,148,3.0,10.0,69,0.00,,,0.00,,2013-08-09 07:01:00,
2013-08-09 02:12:00,58.0,48.0,-100.00,SSE,148,3.0,10.0,69,0.00,,,0.00,,2013-08-09 07:12:00,
2013-08-09 02:22:00,58.0,48.0,-100.00,SSE,148,3.0,10.0,69,0.00,,,0.00,,2013-08-09 07:22:00,
2013-08-09 02:53:00,57.0,48.0,-100.00,ESE,115,3.0,7.0,73,0.00,,,0.00,,2013-08-09 07:53:00,
2013-08-09 03:02:00,57.0,48.0,-100.00,ESE,115,3.0,7.0,73,0.00,,,0.00,,2013-08-09 08:02:00,
2013-08-09 03:12:00,57.0,48.0,-100.00,ESE,115,3.0,7.0,73,0.00,,,0.00,,2013-08-09 08:12:00,
2013-08-09 03:22:00,57.0,48.0,-100.00,ESE,115,3.0,7.0,73,0.00,,,0.00,,2013-08-09 08:22:00,
2013-08-09 03:53:00,57.0,51.0,-100.00,SE,135,0.0,6.0,80,0.00,,,0.00,,2013-08-09 08:53:00,
2013-08-09 04:02:00,57.0,51.0,-100.00,SE,135,0.0,6.0,80,0.00,,,0.00,,2013-08-09 09:02:00,
2013-08-09 04:12:00,57.0,51.0,-100.00,SE,135,0.0,6.0,80,0.00,,,0.00,,2013-08-09 09:12:00,
2013-08-09 04:22:00,57.0,51.0,-100.00,SE,135,0.0,6.0,80,0.00,,,0.00,,2013-08-09 09:22:00,
2013-08-09 04:52:00,57.0,52.0,-100.00,SSE,147,2.0,5.0,84,0.00,,,0.00,,2013-08-09 09:52:00,
2013-08-09 05:01:00,57.0,52.0,-100.00,SSE,147,2.0,5.0,84,0.00,,,0.00,,2013-08-09 10:01:00,
2013-08-09 05:12:00,57.0,52.0,-100.00,SSE,147,2.0,5.0,84,0.00,,,0.00,,2013-08-09 10:12:00,
2013-08-09 05:22:00,57.0,52.0,-100.00,SSE,147,2.0,5.0,84,0.00,,,0.00,,2013-08-09 10:22:00,
2013-08-09 05:53:00,57.0,52.0,-100.00,SE,126,2.0,6.0,83,0.00,,,0.00,,2013-08-09 10:53:00,
2013-08-09 06:02:00,57.0,52.0,-100.00,SE,126,2.0,6.0,83,0.00,,,0.00,,2013-08-09 11:02:00,
2013-08-09 06:11:00,57.0,52.0,-100.00,SE,126,2.0,6.0,83,0.00,,,0.00,,2013-08-09 11:11:00,
2013-08-09 06:22:00,57.0,52.0,-100.00,SE,126,2.0,6.0,83,0.00,,,0.00,,2013-08-09 11:22:00,
2013-08-09 06:53:00,59.0,52.0,-100.00,SSE,149,4.0,11.0,79,0.00,,,0.00,,2013-08-09 11:53:00,
2013-08-09 07:02:00,59.0,52.0,-100.00,SSE,149,4.0,11.0,79,0.00,,,0.00,,2013-08-09 12:02:00,
2013-08-09 07:12:00,59.0,52.0,-100.00,SSE,149,4.0,11.0,79,0.00,,,0.00,,2013-08-09 12:12:00,
2013-08-09 07:22:00,59.0,52.0,-100.00,SSE,149,4.0,11.0,79,0.00,,,0.00,,2013-08-09 12:22:00,
2013-08-09 07:52:00,61.0,54.0,-100.00,SSE,168,5.0,9.0,77,0.00,,,0.00,,2013-08-09 12:52:00,
2013-08-09 08:01:00,61.0,54.0,-100.00,SSE,168,5.0,9.0,77,0.00,,,0.00,,2013-08-09 13:01:00,
2013-08-09 08:12:00,61.0,54.0,-100.00,SSE,168,5.0,9.0,77,0.00,,,0.00,,2013-08-09 13:12:00,
2013-08-09 08:23:00,61.0,54.0,-100.00,SSE,168,5.0,9.0,77,0.00,,,0.00,,2013-08-09 13:23:00,
2013-08-09 08:52:00,64.0,56.0,-100.00,SSE,152,3.0,10.0,76,0.00,,,0.00,,2013-08-09 13:52:00,
2013-08-09 09:02:00,64.0,56.0,-100.00,SSE,152,3.0,10.0,76,0.00,,,0.00,,2013-08-09 14:02:00,
2013-08-09 09:11:00,64.0,56.0,-100.00,SSE,152,3.0,10.0,76,0.00,,,0.00,,2013-08-09 14:11:00,
2013-08-09 09:22:00,64.0,56.0,-100.00,SSE,152,3.0,10.0,76,0.00,,,0.00,,2013-08-09 14:22:00,
2013-08-09 09:53:00,67.0,59.0,-100.00,SSW,206,3.0,8.0,75,0.00,,,0.00,,2013-08-09 14:53:00,
2013-08-09 10:02:00,67.0,59.0,-100.00,SSW,206,3.0,8.0,75,0.00,,,0.00,,2013-08-09 15:02:00,
2013-08-09 10:11:00,67.0,59.0,-100.00,SSW,206,3.0,8.0,75,0.00,,,0.00,,2013-08-09 15:11:00,
2013-08-09 10:22:00,67.0,59.0,-100.00,SSW,206,3.0,8.0,75,0.00,,,0.00,,2013-08-09 15:22:00,
2013-08-09 10:53:00,72.0,61.0,-100.00,WNW,286,5.0,8.0,69,0.00,,,0.00,,2013-08-09 15:53:00,
2013-08-09 11:01:00,72.0,61.0,-100.00,WNW,286,5.0,8.0,69,0.00,,,0.00,,2013-08-09 16:01:00,
2013-08-09 11:11:00,72.0,61.0,-100.00,WNW,286,5.0,8.0,69,0.00,,,0.00,,2013-08-09 16:11:00,
2013-08-09 11:22:00,72.0,61.0,-100.00,WNW,286,5.0,8.0,69,0.00,,,0.00,,2013-08-09 16:22:00,
2013-08-09 11:53:00,74.0,61.0,-100.00,WNW,293,7.0,10.0,64,0.00,,,0.00,,2013-08-09 16:53:00,
2013-08-09 12:02:00,74.0,61.0,-100.00,WNW,293,7.0,10.0,64,0.00,,,0.00,,2013-08-09 17:02:00,
2013-08-09 12:11:00,74.0,61.0,-100.00,WNW,293,7.0,10.0,64,0.00,,,0.00,,2013-08-09 17:11:00,
2013-08-09 12:22:00,74.0,61.0,-100.00,WNW,293,7.0,10.0,64,0.00,,,0.00,,2013-08-09 17:22:00,
2013-08-09 12:52:00,75.0,61.0,-100.00,WNW,283,11.0,16.0,61,0.00,,,0.00,,2013-08-09 17:52:00,
2013-08-09 13:01:00,75.0,61.0,-100.00,WNW,283,11.0,16.0,61,0.00,,,0.00,,2013-08-09 18:01:00,
2013-08-09 13:11:00,75.0,61.0,-100.00,WNW,283,11.0,16.0,61,0.00,,,0.00,,2013-08-09 18:11:00,
2013-08-09 13:22:00,75.0,61.0,-100.00,WNW,283,11.0,16.0,61,0.00,,,0.00,,2013-08-09 18:22:00,
2013-08-09 13:53:00,76.0,61.0,-100.00,WNW,300,9.0,15.0,60,0.00,,,0.00,,2013-08-09 18:53:00,
2013-08-09 14:02:00,76.0,61.0,-100.00,WNW,300,9.0,15.0,60,0.00,,,0.00,,2013-08-09 19:02:00,
2013-08-09 14:11:00,76.0,61.0,-100.00,WNW,300,9.0,15.0,60,0.00,,,0.00,,2013-08-09 19:11:00,
2013-08-09 14:22:00,76.0,61.0,-100.00,WNW,300,9.0,15.0,60,0.00,,,0.00,,2013-08-09 19:22:00,
2013-08-09 14:52:00,78.0,59.0,-100.00,WNW,287,11.0,18.0,53,0.00,,,0.00,,2013-08-09 19:52:00,
2013-08-09 15:02:00,78.0,59.0,-100.00,WNW,287,11.0,18.0,53,0.00,,,0.00,,2013-08-09 20:02:00,
2013-08-09 15:11:00,78.0,59.0,-100.00,WNW,287,11.0,18.0,53,0.00,,,0.00,,2013-08-09 20:11:00,
2013-08-09 15:22:00,78.0,59.0,-100.00,WNW,287,11.0,18.0,53,0.00,,,0.00,,2013-08-09 20:22:00,
2013-08-09 15:52:00,79.0,59.0,-100.00,WNW,298,9.0,19.0,50,0.00,,,0.00,,2013-08-09 20:52:00,
2013-08-09 16:01:00,79.0,59.0,-100.00,WNW,298,9.0,19.0,50,0.00,,,0.00,,2013-08-09 21:01:00,
2013-08-09 16:12:00,79.0,59.0,-100.00,WNW,298,9.0,19.0,50,0.00,,,0.00,,2013-08-09 21:12:00,
2013-08-09 16:22:00,79.0,59.0,-100.00,WNW,298,9.0,19.0,50,0.00,,,0.00,,2013-08-09 21:22:00,
2013-08-09 16:52:00,79.0,59.0,-100.00,NW,304,8.0,15.0,50,0.00,,,0.00,,2013-08-09 21:52:00,
2013-08-09 17:01:00,79.0,59.0,-100.00,NW,304,8.0,15.0,50,0.00,,,0.00,,2013-08-09 22:01:00,
2013-08-09 17:11:00,79.0,59.0,-100.00,NW,304,8.0,15.0,50,0.00,,,0.00,,2013-08-09 22:11:00,
2013-08-09 17:22:00,79.0,59.0,-100.00,NW,304,8.0,15.0,50,0.00,,,0.00,,2013-08-09 22:22:00,
2013-08-09 17:52:00,78.0,58.0,-100.00,NW,311,6.0,13.0,51,0.00,,,0.00,,2013-08-09 22:52:00,
2013-08-09 18:01:00,78.0,58.0,-100.00,NW,311,6.0,13.0,51,0.00,,,0.00,,2013-08-09 23:01:00,
2013-08-09 18:11:00,78.0,58.0,-100.00,NW,311,6.0,13.0,51,0.00,,,0.00,,2013-08-09 23:11:00,
2013-08-09 18:22:00,78.0,58.0,-100.00,NW,311,6.0,13.0,51,0.00,,,0.00,,2013-08-09 23:22:00,
2013-08-09 18:52:00,77.0,57.0,-100.00,NNW,333,6.0,11.0,50,0.00,,,0.00,,2013-08-09 23:52:00,
2013-08-09 19:01:00,77.0,57.0,-100.00,NNW,333,6.0,11.0,50,0.00,,,0.00,,2013-08-10 00:01:00,
2013-08-09 19:11:00,77.0,57.0,-100.00,NNW,333,6.0,11.0,50,0.00,,,0.00,,2013-08-10 00:11:00,
2013-08-09 19:22:00,77.0,57.0,-100.00,NNW,333,6.0,11.0,50,0.00,,,0.00,,2013-08-10 00:22:00,
2013-08-09 19:53:00,74.0,58.0,-100.00,NNW,340,5.0,8.0,57,0.00,,,0.00,,2013-08-10 00:53:00,
2013-08-09 20:01:00,74.0,58.0,-100.00,NNW,340,5.0,8.0,57,0.00,,,0.00,,2013-08-10 01:01:00,
2013-08-09 20:11:00,74.0,58.0,-100.00,NNW,340,5.0,8.0,57,0.00,,,0.00,,2013-08-10 01:11:00,
2013-08-09 20:22:00,74.0,58.0,-100.00,NNW,340,5.0,8.0,57,0.00,,,0.00,,2013-08-10 01:22:00,
2013-08-09 20:52:00,67.0,59.0,-100.00,NNE,19,3.0,6.0,76,0.00,,,0.00,,2013-08-10 01:52:00,
2013-08-09 21:03:00,67.0,59.0,-100.00,NNE,19,3.0,6.0,76,0.00,,,0.00,,2013-08-10 02:03:00,
2013-08-09 21:11:00,67.0,59.0,-100.00,NNE,19,3.0,6.0,76,0.00,,,0.00,,2013-08-10 02:11:00,
2013-08-09 21:21:00,67.0,59.0,-100.00,NNE,19,3.0,6.0,76,0.00,,,0.00,,2013-08-10 02:21:00,
2013-08-09 21:52:00,64.0,56.0,-100.00,NNE,23,3.0,7.0,75,0.00,,,0.00,,2013-08-10 02:52:00,
2013-08-09 22:01:00,64.0,56.0,-100.00,NNE,23,3.0,7.0,75,0.00,,,0.00,,2013-08-10 03:01:00,
2013-08-09 22:11:00,64.0,56.0,-100.00,NNE,23,3.0,7.0,75,0.00,,,0.00,,2013-08-10 03:11:00,
2013-08-09 22:21:00,64.0,56.0,-100.00,NNE,23,3.0,7.0,75,0.00,,,0.00,,2013-08-10 03:21:00,
2013-08-09 22:52:00,62.0,55.0,-100.00,NNE,24,4.0,7.0,79,0.00,,,0.00,,2013-08-10 03:52:00,
2013-08-09 23:02:00,62.0,55.0,-100.00,NNE,24,4.0,7.0,79,0.00,,,0.00,,2013-08-10 04:02:00,
2013-08-09 23:12:00,62.0,55.0,-100.00,NNE,24,4.0,7.0,79,0.00,,,0.00,,2013-08-10 04:12:00,
2013-08-09 23:22:00,62.0,55.0,-100.00,NNE,24,4.0,7.0,79,0.00,,,0.00,,2013-08-10 04:22:00,
2013-08-09 23:53:00,61.0,54.0,-100.00,NNW,336,1.0,5.0,78,0.00,,,0.00,,2013-08-10 04:53:00,